sensor_id;sensor_type;location;lat;lon;timestamp;P1;durP1;ratioP1;P2;durP2;ratioP2
60306;SDS011;46155;52.364;6.580;2023-01-15T04:01:59;12.70;;;10.10;;
60306;SDS011;46155;52.364;6.580;2023-01-15T04:04:27;10.13;;;9.23;;
60306;SDS011;46155;52.364;6.580;2023-01-15T04:06:53;12.17;;;8.77;;
60306;SDS011;46155;52.364;6.580;2023-01-15T04:09:19;10.60;;;9.53;;
60306;SDS011;46155;52.364;6.580;2023-01-15T04:11:46;9.37;;;8.30;;
60306;SDS011;46155;52.364;6.580;2023-01-15T04:14:12;12.87;;;10.13;;
60306;SDS011;46155;52.364;6.580;2023-01-15T04:16:38;10.80;;;9.60;;
60306;SDS011;46155;52.364;6.580;2023-01-15T04:19:03;20.10;;;9.70;;
60306;SDS011;46155;52.364;6.580;2023-01-15T04:21:29;18.43;;;10.03;;
60306;SDS011;46155;52.364;6.580;2023-01-15T04:23:55;16.63;;;9.70;;
60306;SDS011;46155;52.364;6.580;2023-01-15T04:26:20;14.53;;;9.07;;
60306;SDS011;46155;52.364;6.580;2023-01-15T04:28:45;16.40;;;9.43;;
60306;SDS011;46155;52.364;6.580;2023-01-15T04:31:11;9.77;;;8.80;;
60306;SDS011;46155;52.364;6.580;2023-01-15T04:33:36;10.37;;;9.10;;
60306;SDS011;46155;52.364;6.580;2023-01-15T04:36:04;9.63;;;8.60;;
60306;SDS011;46155;52.364;6.580;2023-01-15T04:38:29;11.10;;;10.20;;
60306;SDS011;46155;52.364;6.580;2023-01-15T04:40:55;13.43;;;8.67;;
60306;SDS011;46155;52.364;6.580;2023-01-15T04:43:43;10.83;;;9.60;;
60306;SDS011;46155;52.364;6.580;2023-01-15T04:46:27;11.63;;;10.20;;
60306;SDS011;46155;52.364;6.580;2023-01-15T04:48:52;23.70;;;9.83;;
60306;SDS011;46155;52.364;6.580;2023-01-15T04:51:17;9.97;;;8.93;;
60306;SDS011;46155;52.364;6.580;2023-01-15T04:53:43;12.60;;;9.40;;
60306;SDS011;46155;52.364;6.580;2023-01-15T04:56:08;9.70;;;9.00;;
60306;SDS011;46155;52.364;6.580;2023-01-15T04:58:33;13.37;;;8.73;;
60306;SDS011;46155;52.364;6.580;2023-01-15T05:01:00;16.07;;;10.03;;
60306;SDS011;46155;52.364;6.580;2023-01-15T05:03:25;14.23;;;9.80;;
60306;SDS011;46155;52.364;6.580;2023-01-15T05:05:52;12.70;;;9.30;;
60306;SDS011;46155;52.364;6.580;2023-01-15T05:08:17;16.77;;;9.40;;
60306;SDS011;46155;52.364;6.580;2023-01-15T05:10:43;16.27;;;9.80;;
60306;SDS011;46155;52.364;6.580;2023-01-15T05:13:08;11.00;;;9.30;;
60306;SDS011;46155;52.364;6.580;2023-01-15T05:15:33;20.30;;;9.80;;
60306;SDS011;46155;52.364;6.580;2023-01-15T05:17:59;25.60;;;9.97;;
60306;SDS011;46155;52.364;6.580;2023-01-15T05:20:24;12.03;;;9.07;;
60306;SDS011;46155;52.364;6.580;2023-01-15T05:22:49;10.30;;;9.37;;
60306;SDS011;46155;52.364;6.580;2023-01-15T05:25:15;9.07;;;8.37;;
60306;SDS011;46155;52.364;6.580;2023-01-15T05:27:40;12.97;;;10.93;;
60306;SDS011;46155;52.364;6.580;2023-01-15T05:30:06;18.63;;;9.00;;
60306;SDS011;46155;52.364;6.580;2023-01-15T05:32:32;9.90;;;9.00;;
60306;SDS011;46155;52.364;6.580;2023-01-15T05:34:58;13.73;;;9.30;;
60306;SDS011;46155;52.364;6.580;2023-01-15T05:37:23;11.63;;;8.80;;
60306;SDS011;46155;52.364;6.580;2023-01-15T05:39:48;9.80;;;8.80;;
60306;SDS011;46155;52.364;6.580;2023-01-15T05:42:13;10.60;;;9.80;;
60306;SDS011;46155;52.364;6.580;2023-01-15T05:44:39;11.07;;;9.17;;
60306;SDS011;46155;52.364;6.580;2023-01-15T05:47:04;13.70;;;10.53;;
60306;SDS011;46155;52.364;6.580;2023-01-15T05:49:31;10.63;;;9.77;;
60306;SDS011;46155;52.364;6.580;2023-01-15T05:51:57;10.10;;;9.40;;
60306;SDS011;46155;52.364;6.580;2023-01-15T05:54:33;14.37;;;10.27;;
60306;SDS011;46155;52.364;6.580;2023-01-15T05:57:00;11.37;;;10.50;;
60306;SDS011;46155;52.364;6.580;2023-01-15T05:59:27;10.60;;;9.60;;
60306;SDS011;46155;52.364;6.580;2023-01-15T06:01:53;11.37;;;10.33;;
60306;SDS011;46155;52.364;6.580;2023-01-15T06:04:19;13.70;;;11.50;;
60306;SDS011;46155;52.364;6.580;2023-01-15T06:06:46;10.77;;;9.77;;
60306;SDS011;46155;52.364;6.580;2023-01-15T06:09:12;11.20;;;7.97;;
60306;SDS011;46155;52.364;6.580;2023-01-15T06:11:38;9.00;;;8.10;;
60306;SDS011;46155;52.364;6.580;2023-01-15T06:14:04;12.47;;;9.40;;
60306;SDS011;46155;52.364;6.580;2023-01-15T06:16:31;8.90;;;8.07;;
60306;SDS011;46155;52.364;6.580;2023-01-15T06:19:03;9.30;;;8.40;;
60306;SDS011;46155;52.364;6.580;2023-01-15T06:21:30;9.50;;;8.60;;
60306;SDS011;46155;52.364;6.580;2023-01-15T06:23:56;9.83;;;9.13;;
60306;SDS011;46155;52.364;6.580;2023-01-15T06:26:22;11.97;;;9.23;;
60306;SDS011;46155;52.364;6.580;2023-01-15T06:28:47;9.93;;;9.27;;
60306;SDS011;46155;52.364;6.580;2023-01-15T06:31:14;10.03;;;8.97;;
60306;SDS011;46155;52.364;6.580;2023-01-15T06:33:41;10.20;;;9.43;;
60306;SDS011;46155;52.364;6.580;2023-01-15T06:36:11;11.77;;;10.40;;
60306;SDS011;46155;52.364;6.580;2023-01-15T06:38:38;15.33;;;10.80;;
60306;SDS011;46155;52.364;6.580;2023-01-15T06:41:04;13.13;;;10.87;;
60306;SDS011;46155;52.364;6.580;2023-01-15T06:43:51;11.23;;;10.17;;
60306;SDS011;46155;52.364;6.580;2023-01-15T06:46:34;16.27;;;10.33;;
60306;SDS011;46155;52.364;6.580;2023-01-15T06:49:18;19.00;;;11.07;;
60306;SDS011;46155;52.364;6.580;2023-01-15T06:51:44;11.40;;;10.03;;
60306;SDS011;46155;52.364;6.580;2023-01-15T06:54:09;11.67;;;10.50;;
60306;SDS011;46155;52.364;6.580;2023-01-15T06:56:34;16.37;;;10.20;;
60306;SDS011;46155;52.364;6.580;2023-01-15T06:59:00;13.37;;;10.60;;
60306;SDS011;46155;52.364;6.580;2023-01-15T07:01:25;13.43;;;11.00;;
60306;SDS011;46155;52.364;6.580;2023-01-15T07:03:54;11.23;;;10.07;;
60306;SDS011;46155;52.364;6.580;2023-01-15T07:06:20;12.37;;;11.17;;
60306;SDS011;46155;52.364;6.580;2023-01-15T07:08:45;13.40;;;8.43;;
60306;SDS011;46155;52.364;6.580;2023-01-15T07:11:10;17.13;;;9.10;;
60306;SDS011;46155;52.364;6.580;2023-01-15T07:13:36;9.57;;;8.67;;
60306;SDS011;46155;52.364;6.580;2023-01-15T07:16:02;10.20;;;9.00;;
60306;SDS011;46155;52.364;6.580;2023-01-15T07:18:28;14.93;;;9.67;;
60306;SDS011;46155;52.364;6.580;2023-01-15T07:20:55;9.93;;;8.47;;
60306;SDS011;46155;52.364;6.580;2023-01-15T07:23:25;13.63;;;8.40;;
60306;SDS011;46155;52.364;6.580;2023-01-15T07:25:51;11.67;;;8.73;;
60306;SDS011;46155;52.364;6.580;2023-01-15T07:28:17;9.07;;;7.23;;
60306;SDS011;46155;52.364;6.580;2023-01-15T07:30:43;9.17;;;7.93;;
60306;SDS011;46155;52.364;6.580;2023-01-15T07:33:09;8.40;;;7.70;;
60306;SDS011;46155;52.364;6.580;2023-01-15T07:35:34;17.40;;;7.93;;
60306;SDS011;46155;52.364;6.580;2023-01-15T07:38:01;8.70;;;7.90;;
60306;SDS011;46155;52.364;6.580;2023-01-15T07:40:27;10.53;;;7.07;;
60306;SDS011;46155;52.364;6.580;2023-01-15T07:42:52;8.70;;;6.03;;
60306;SDS011;46155;52.364;6.580;2023-01-15T07:45:37;12.27;;;7.13;;
60306;SDS011;46155;52.364;6.580;2023-01-15T07:48:29;8.27;;;6.93;;
60306;SDS011;46155;52.364;6.580;2023-01-15T07:51:13;7.20;;;6.70;;
60306;SDS011;46155;52.364;6.580;2023-01-15T07:53:38;7.87;;;6.80;;
60306;SDS011;46155;52.364;6.580;2023-01-15T07:56:04;14.80;;;6.57;;
60306;SDS011;46155;52.364;6.580;2023-01-15T07:58:29;9.43;;;7.20;;
60306;SDS011;46155;52.364;6.580;2023-01-15T08:00:54;9.03;;;7.10;;
60306;SDS011;46155;52.364;6.580;2023-01-15T08:03:20;10.67;;;6.07;;
60306;SDS011;46155;52.364;6.580;2023-01-15T08:05:45;6.47;;;6.00;;
60306;SDS011;46155;52.364;6.580;2023-01-15T08:08:14;15.67;;;5.90;;
60306;SDS011;46155;52.364;6.580;2023-01-15T08:10:40;6.63;;;5.10;;
60306;SDS011;46155;52.364;6.580;2023-01-15T08:13:25;10.70;;;7.23;;
60306;SDS011;46155;52.364;6.580;2023-01-15T08:16:09;13.20;;;6.57;;
60306;SDS011;46155;52.364;6.580;2023-01-15T08:18:35;12.10;;;7.20;;
60306;SDS011;46155;52.364;6.580;2023-01-15T08:21:01;21.73;;;8.37;;
60306;SDS011;46155;52.364;6.580;2023-01-15T08:23:26;7.23;;;6.63;;
60306;SDS011;46155;52.364;6.580;2023-01-15T08:25:51;15.23;;;8.03;;
60306;SDS011;46155;52.364;6.580;2023-01-15T08:28:17;17.87;;;7.73;;
60306;SDS011;46155;52.364;6.580;2023-01-15T08:30:42;14.13;;;7.03;;
60306;SDS011;46155;52.364;6.580;2023-01-15T08:33:07;6.90;;;6.27;;
60306;SDS011;46155;52.364;6.580;2023-01-15T08:35:33;8.20;;;7.50;;
60306;SDS011;46155;52.364;6.580;2023-01-15T08:38:02;14.90;;;8.20;;
60306;SDS011;46155;52.364;6.580;2023-01-15T08:40:29;13.43;;;7.50;;
60306;SDS011;46155;52.364;6.580;2023-01-15T08:42:54;13.93;;;7.37;;
60306;SDS011;46155;52.364;6.580;2023-01-15T08:45:19;8.20;;;7.60;;
60306;SDS011;46155;52.364;6.580;2023-01-15T08:47:45;12.40;;;6.57;;
60306;SDS011;46155;52.364;6.580;2023-01-15T08:50:10;14.00;;;7.37;;
60306;SDS011;46155;52.364;6.580;2023-01-15T08:52:36;11.80;;;6.73;;
60306;SDS011;46155;52.364;6.580;2023-01-15T08:55:02;13.97;;;7.20;;
60306;SDS011;46155;52.364;6.580;2023-01-15T08:57:28;8.53;;;6.27;;
60306;SDS011;46155;52.364;6.580;2023-01-15T08:59:53;10.67;;;6.00;;
60306;SDS011;46155;52.364;6.580;2023-01-15T09:02:18;16.30;;;6.63;;
60306;SDS011;46155;52.364;6.580;2023-01-15T09:04:44;15.93;;;6.17;;
60306;SDS011;46155;52.364;6.580;2023-01-15T09:07:09;7.13;;;6.03;;
60306;SDS011;46155;52.364;6.580;2023-01-15T09:09:35;17.97;;;6.53;;
60306;SDS011;46155;52.364;6.580;2023-01-15T09:12:00;8.97;;;5.70;;
60306;SDS011;46155;52.364;6.580;2023-01-15T09:14:26;11.87;;;6.70;;
60306;SDS011;46155;52.364;6.580;2023-01-15T09:16:51;10.13;;;5.53;;
60306;SDS011;46155;52.364;6.580;2023-01-15T09:19:17;6.33;;;5.60;;
60306;SDS011;46155;52.364;6.580;2023-01-15T09:21:42;7.07;;;5.40;;
60306;SDS011;46155;52.364;6.580;2023-01-15T09:24:07;6.60;;;5.70;;
60306;SDS011;46155;52.364;6.580;2023-01-15T09:26:34;12.73;;;5.70;;
60306;SDS011;46155;52.364;6.580;2023-01-15T09:29:02;12.60;;;5.67;;
60306;SDS011;46155;52.364;6.580;2023-01-15T09:31:28;9.27;;;5.57;;
60306;SDS011;46155;52.364;6.580;2023-01-15T09:33:53;8.90;;;5.40;;
60306;SDS011;46155;52.364;6.580;2023-01-15T09:36:23;5.87;;;5.30;;
60306;SDS011;46155;52.364;6.580;2023-01-15T09:38:51;8.20;;;5.83;;
60306;SDS011;46155;52.364;6.580;2023-01-15T09:41:17;10.70;;;5.63;;
60306;SDS011;46155;52.364;6.580;2023-01-15T09:46:39;8.17;;;4.97;;
60306;SDS011;46155;52.364;6.580;2023-01-15T09:49:11;8.73;;;5.40;;
60306;SDS011;46155;52.364;6.580;2023-01-15T09:54:55;8.17;;;5.30;;
60306;SDS011;46155;52.364;6.580;2023-01-15T09:57:22;9.67;;;4.70;;
60306;SDS011;46155;52.364;6.580;2023-01-15T09:59:49;13.40;;;5.77;;
60306;SDS011;46155;52.364;6.580;2023-01-15T10:04:53;10.43;;;5.23;;
60306;SDS011;46155;52.364;6.580;2023-01-15T10:07:26;6.23;;;4.33;;
60306;SDS011;46155;52.364;6.580;2023-01-15T10:10:02;11.80;;;5.10;;
60306;SDS011;46155;52.364;6.580;2023-01-15T10:12:31;10.43;;;4.87;;
60306;SDS011;46155;52.364;6.580;2023-01-15T10:17:54;13.57;;;5.30;;
60306;SDS011;46155;52.364;6.580;2023-01-15T10:23:08;10.97;;;5.20;;
60306;SDS011;46155;52.364;6.580;2023-01-15T10:25:56;10.63;;;4.97;;
60306;SDS011;46155;52.364;6.580;2023-01-15T10:28:28;16.03;;;5.30;;
60306;SDS011;46155;52.364;6.580;2023-01-15T10:31:17;19.80;;;4.60;;
60306;SDS011;46155;52.364;6.580;2023-01-15T10:47:22;10.17;;;4.43;;
60306;SDS011;46155;52.364;6.580;2023-01-15T10:49:54;6.77;;;4.90;;
60306;SDS011;46155;52.364;6.580;2023-01-15T10:52:33;16.93;;;5.17;;
60306;SDS011;46155;52.364;6.580;2023-01-15T10:55:15;12.57;;;5.40;;
60306;SDS011;46155;52.364;6.580;2023-01-15T10:58:02;12.77;;;5.00;;
60306;SDS011;46155;52.364;6.580;2023-01-15T11:00:36;8.23;;;5.63;;
60306;SDS011;46155;52.364;6.580;2023-01-15T11:03:04;8.90;;;4.63;;
60306;SDS011;46155;52.364;6.580;2023-01-15T11:05:39;8.67;;;4.27;;
60306;SDS011;46155;52.364;6.580;2023-01-15T11:08:11;14.97;;;4.47;;
60306;SDS011;46155;52.364;6.580;2023-01-15T11:10:42;14.50;;;4.97;;
60306;SDS011;46155;52.364;6.580;2023-01-15T11:13:16;14.20;;;4.97;;
60306;SDS011;46155;52.364;6.580;2023-01-15T11:16:04;14.23;;;4.83;;
60306;SDS011;46155;52.364;6.580;2023-01-15T11:18:56;15.07;;;5.20;;
60306;SDS011;46155;52.364;6.580;2023-01-15T11:21:45;10.37;;;5.73;;
60306;SDS011;46155;52.364;6.580;2023-01-15T11:24:14;9.23;;;4.57;;
60306;SDS011;46155;52.364;6.580;2023-01-15T11:26:40;6.37;;;4.77;;
60306;SDS011;46155;52.364;6.580;2023-01-15T11:29:18;10.33;;;4.40;;
60306;SDS011;46155;52.364;6.580;2023-01-15T11:31:54;11.60;;;5.17;;
60306;SDS011;46155;52.364;6.580;2023-01-15T11:34:20;14.90;;;4.90;;
60306;SDS011;46155;52.364;6.580;2023-01-15T11:36:46;12.43;;;5.53;;
60306;SDS011;46155;52.364;6.580;2023-01-15T11:39:24;9.37;;;4.90;;
60306;SDS011;46155;52.364;6.580;2023-01-15T11:42:01;7.33;;;4.53;;
60306;SDS011;46155;52.364;6.580;2023-01-15T11:44:51;8.40;;;5.77;;
60306;SDS011;46155;52.364;6.580;2023-01-15T11:47:50;9.10;;;5.50;;
60306;SDS011;46155;52.364;6.580;2023-01-15T11:50:37;14.43;;;4.73;;
60306;SDS011;46155;52.364;6.580;2023-01-15T11:53:16;5.90;;;4.17;;
60306;SDS011;46155;52.364;6.580;2023-01-15T11:55:56;11.80;;;4.67;;
60306;SDS011;46155;52.364;6.580;2023-01-15T11:58:25;5.10;;;4.00;;
60306;SDS011;46155;52.364;6.580;2023-01-15T12:00:51;11.17;;;4.40;;
60306;SDS011;46155;52.364;6.580;2023-01-15T12:03:20;8.83;;;5.17;;
60306;SDS011;46155;52.364;6.580;2023-01-15T12:06:08;7.13;;;4.30;;
60306;SDS011;46155;52.364;6.580;2023-01-15T12:08:41;6.97;;;4.33;;
60306;SDS011;46155;52.364;6.580;2023-01-15T12:23:12;14.30;;;5.23;;
60306;SDS011;46155;52.364;6.580;2023-01-15T12:28:39;10.30;;;5.37;;
60306;SDS011;46155;52.364;6.580;2023-01-15T12:31:17;9.03;;;5.03;;
60306;SDS011;46155;52.364;6.580;2023-01-15T12:33:48;16.27;;;4.63;;
60306;SDS011;46155;52.364;6.580;2023-01-15T12:36:32;10.10;;;4.70;;
60306;SDS011;46155;52.364;6.580;2023-01-15T12:41:56;8.03;;;4.70;;
60306;SDS011;46155;52.364;6.580;2023-01-15T12:44:51;10.07;;;5.80;;
60306;SDS011;46155;52.364;6.580;2023-01-15T12:53:10;6.20;;;5.70;;
60306;SDS011;46155;52.364;6.580;2023-01-15T12:55:43;16.93;;;5.00;;
60306;SDS011;46155;52.364;6.580;2023-01-15T12:58:27;6.77;;;5.00;;
60306;SDS011;46155;52.364;6.580;2023-01-15T13:04:02;5.93;;;5.40;;
60306;SDS011;46155;52.364;6.580;2023-01-15T13:06:30;7.73;;;5.00;;
60306;SDS011;46155;52.364;6.580;2023-01-15T13:09:01;9.03;;;4.93;;
60306;SDS011;46155;52.364;6.580;2023-01-15T13:11:32;7.17;;;5.27;;
60306;SDS011;46155;52.364;6.580;2023-01-15T13:13:58;7.67;;;5.53;;
60306;SDS011;46155;52.364;6.580;2023-01-15T13:16:27;7.23;;;5.40;;
60306;SDS011;46155;52.364;6.580;2023-01-15T13:22:15;6.30;;;5.70;;
60306;SDS011;46155;52.364;6.580;2023-01-15T13:30:31;14.57;;;8.13;;
60306;SDS011;46155;52.364;6.580;2023-01-15T13:33:15;13.77;;;7.10;;
60306;SDS011;46155;52.364;6.580;2023-01-15T13:35:45;7.83;;;7.20;;
60306;SDS011;46155;52.364;6.580;2023-01-15T13:38:15;12.00;;;7.70;;
60306;SDS011;46155;52.364;6.580;2023-01-15T13:40:45;8.10;;;7.43;;
60306;SDS011;46155;52.364;6.580;2023-01-15T13:43:35;8.73;;;7.93;;
60306;SDS011;46155;52.364;6.580;2023-01-15T13:46:10;7.27;;;6.67;;
60306;SDS011;46155;52.364;6.580;2023-01-15T13:48:44;7.73;;;7.23;;
60306;SDS011;46155;52.364;6.580;2023-01-15T13:54:11;8.07;;;7.27;;
60306;SDS011;46155;52.364;6.580;2023-01-15T13:56:41;8.67;;;8.03;;
60306;SDS011;46155;52.364;6.580;2023-01-15T13:59:29;7.37;;;6.83;;
60306;SDS011;46155;52.364;6.580;2023-01-15T14:02:12;8.03;;;7.47;;
60306;SDS011;46155;52.364;6.580;2023-01-15T14:04:48;7.73;;;7.10;;
60306;SDS011;46155;52.364;6.580;2023-01-15T14:07:17;7.93;;;7.43;;
60306;SDS011;46155;52.364;6.580;2023-01-15T14:10:34;7.47;;;6.87;;
60306;SDS011;46155;52.364;6.580;2023-01-15T14:15:29;10.43;;;6.80;;
60306;SDS011;46155;52.364;6.580;2023-01-15T14:23:42;7.10;;;6.47;;
60306;SDS011;46155;52.364;6.580;2023-01-15T14:29:41;6.50;;;5.90;;
60306;SDS011;46155;52.364;6.580;2023-01-15T14:35:14;7.03;;;6.43;;
60306;SDS011;46155;52.364;6.580;2023-01-15T14:40:19;6.00;;;5.60;;
60306;SDS011;46155;52.364;6.580;2023-01-15T14:42:48;6.00;;;5.60;;
60306;SDS011;46155;52.364;6.580;2023-01-15T14:48:01;6.47;;;6.00;;
60306;SDS011;46155;52.364;6.580;2023-01-15T14:53:02;8.97;;;5.80;;
60306;SDS011;46155;52.364;6.580;2023-01-15T14:55:29;5.60;;;5.20;;
60306;SDS011;46155;52.364;6.580;2023-01-15T14:57:57;11.63;;;6.80;;
60306;SDS011;46155;52.364;6.580;2023-01-15T15:00:29;11.87;;;6.30;;
60306;SDS011;46155;52.364;6.580;2023-01-15T15:03:00;11.30;;;6.80;;
60306;SDS011;46155;52.364;6.580;2023-01-15T15:05:28;13.97;;;6.93;;
60306;SDS011;46155;52.364;6.580;2023-01-15T15:07:57;11.87;;;7.50;;
60306;SDS011;46155;52.364;6.580;2023-01-15T15:10:30;12.23;;;6.43;;
60306;SDS011;46155;52.364;6.580;2023-01-15T15:13:08;7.17;;;6.70;;
60306;SDS011;46155;52.364;6.580;2023-01-15T15:15:54;10.27;;;6.20;;
60306;SDS011;46155;52.364;6.580;2023-01-15T15:18:30;10.77;;;6.70;;
60306;SDS011;46155;52.364;6.580;2023-01-15T15:21:04;10.97;;;7.37;;
60306;SDS011;46155;52.364;6.580;2023-01-15T15:26:17;10.40;;;8.10;;
60306;SDS011;46155;52.364;6.580;2023-01-15T15:28:58;13.33;;;7.00;;
60306;SDS011;46155;52.364;6.580;2023-01-15T15:31:25;8.67;;;7.53;;
60306;SDS011;46155;52.364;6.580;2023-01-15T15:33:53;10.70;;;6.83;;
60306;SDS011;46155;52.364;6.580;2023-01-15T15:36:20;13.40;;;8.07;;
60306;SDS011;46155;52.364;6.580;2023-01-15T15:38:53;10.87;;;7.37;;
60306;SDS011;46155;52.364;6.580;2023-01-15T15:41:21;8.70;;;7.70;;
60306;SDS011;46155;52.364;6.580;2023-01-15T15:44:16;7.60;;;7.10;;
60306;SDS011;46155;52.364;6.580;2023-01-15T15:47:17;8.50;;;7.90;;
60306;SDS011;46155;52.364;6.580;2023-01-15T15:50:03;7.70;;;7.00;;
60306;SDS011;46155;52.364;6.580;2023-01-15T15:52:29;6.20;;;5.70;;
60306;SDS011;46155;52.364;6.580;2023-01-15T15:54:58;6.23;;;5.87;;
60306;SDS011;46155;52.364;6.580;2023-01-15T15:57:24;9.30;;;6.50;;
60306;SDS011;46155;52.364;6.580;2023-01-15T15:59:53;6.40;;;6.10;;
60306;SDS011;46155;52.364;6.580;2023-01-15T16:04:55;6.63;;;6.33;;
60306;SDS011;46155;52.364;6.580;2023-01-15T16:07:24;7.43;;;6.70;;
60306;SDS011;46155;52.364;6.580;2023-01-15T16:09:58;8.37;;;7.63;;
60306;SDS011;46155;52.364;6.580;2023-01-15T16:12:28;7.90;;;7.40;;
60306;SDS011;46155;52.364;6.580;2023-01-15T16:14:55;7.40;;;6.90;;
60306;SDS011;46155;52.364;6.580;2023-01-15T16:17:22;9.90;;;9.13;;
60306;SDS011;46155;52.364;6.580;2023-01-15T16:19:51;9.40;;;8.67;;
60306;SDS011;46155;52.364;6.580;2023-01-15T16:22:18;9.10;;;8.70;;
60306;SDS011;46155;52.364;6.580;2023-01-15T16:24:54;9.87;;;8.90;;
60306;SDS011;46155;52.364;6.580;2023-01-15T16:27:21;10.63;;;9.93;;
60306;SDS011;46155;52.364;6.580;2023-01-15T16:29:50;9.23;;;8.73;;
60306;SDS011;46155;52.364;6.580;2023-01-15T16:32:19;9.10;;;8.70;;
60306;SDS011;46155;52.364;6.580;2023-01-15T16:34:48;10.20;;;9.30;;
60306;SDS011;46155;52.364;6.580;2023-01-15T16:37:24;10.40;;;9.67;;
60306;SDS011;46155;52.364;6.580;2023-01-15T16:39:54;10.30;;;9.80;;
60306;SDS011;46155;52.364;6.580;2023-01-15T16:42:27;9.80;;;9.30;;
60306;SDS011;46155;52.364;6.580;2023-01-15T16:44:58;10.97;;;10.40;;
60306;SDS011;46155;52.364;6.580;2023-01-15T16:47:30;10.97;;;10.27;;
60306;SDS011;46155;52.364;6.580;2023-01-15T16:50:22;13.13;;;11.53;;
60306;SDS011;46155;52.364;6.580;2023-01-15T16:52:50;11.93;;;11.33;;
60306;SDS011;46155;52.364;6.580;2023-01-15T17:00:37;16.20;;;14.63;;
60306;SDS011;46155;52.364;6.580;2023-01-15T17:03:09;13.53;;;12.87;;
60306;SDS011;46155;52.364;6.580;2023-01-15T17:05:37;15.93;;;15.10;;
60306;SDS011;46155;52.364;6.580;2023-01-15T17:08:03;15.97;;;14.87;;
60306;SDS011;46155;52.364;6.580;2023-01-15T17:10:29;19.70;;;18.50;;
60306;SDS011;46155;52.364;6.580;2023-01-15T17:12:55;18.43;;;17.23;;
60306;SDS011;46155;52.364;6.580;2023-01-15T17:17:50;15.33;;;14.43;;
60306;SDS011;46155;52.364;6.580;2023-01-15T17:20:18;15.40;;;14.70;;
60306;SDS011;46155;52.364;6.580;2023-01-15T17:22:45;13.90;;;13.27;;
60306;SDS011;46155;52.364;6.580;2023-01-15T17:25:22;14.13;;;13.47;;
60306;SDS011;46155;52.364;6.580;2023-01-15T17:27:51;15.10;;;14.27;;
60306;SDS011;46155;52.364;6.580;2023-01-15T17:30:18;14.50;;;13.80;;
60306;SDS011;46155;52.364;6.580;2023-01-15T17:32:43;14.67;;;13.87;;
60306;SDS011;46155;52.364;6.580;2023-01-15T17:35:23;16.63;;;15.47;;
60306;SDS011;46155;52.364;6.580;2023-01-15T17:37:50;17.50;;;16.70;;
60306;SDS011;46155;52.364;6.580;2023-01-15T17:40:15;15.83;;;15.03;;
60306;SDS011;46155;52.364;6.580;2023-01-15T17:42:41;16.33;;;15.30;;
60306;SDS011;46155;52.364;6.580;2023-01-15T17:45:10;17.73;;;16.63;;
60306;SDS011;46155;52.364;6.580;2023-01-15T17:47:41;16.87;;;15.87;;
60306;SDS011;46155;52.364;6.580;2023-01-15T17:50:06;16.90;;;15.80;;
60306;SDS011;46155;52.364;6.580;2023-01-15T17:52:32;18.00;;;16.63;;
60306;SDS011;46155;52.364;6.580;2023-01-15T17:54:57;18.10;;;17.20;;
60306;SDS011;46155;52.364;6.580;2023-01-15T17:57:41;18.57;;;17.27;;
60306;SDS011;46155;52.364;6.580;2023-01-15T18:00:24;19.17;;;17.23;;
60306;SDS011;46155;52.364;6.580;2023-01-15T18:03:11;17.10;;;16.10;;
60306;SDS011;46155;52.364;6.580;2023-01-15T18:06:00;17.80;;;16.50;;
60306;SDS011;46155;52.364;6.580;2023-01-15T18:08:26;19.40;;;18.00;;
60306;SDS011;46155;52.364;6.580;2023-01-15T18:10:54;18.73;;;17.10;;
60306;SDS011;46155;52.364;6.580;2023-01-15T18:13:19;18.70;;;17.67;;
60306;SDS011;46155;52.364;6.580;2023-01-15T18:15:44;16.43;;;15.43;;
60306;SDS011;46155;52.364;6.580;2023-01-15T18:18:09;17.47;;;16.57;;
60306;SDS011;46155;52.364;6.580;2023-01-15T18:20:35;19.37;;;17.70;;
60306;SDS011;46155;52.364;6.580;2023-01-15T18:23:01;18.40;;;17.03;;
60306;SDS011;46155;52.364;6.580;2023-01-15T18:25:26;19.90;;;18.80;;
60306;SDS011;46155;52.364;6.580;2023-01-15T18:27:51;19.80;;;18.80;;
60306;SDS011;46155;52.364;6.580;2023-01-15T18:30:17;19.37;;;17.97;;
60306;SDS011;46155;52.364;6.580;2023-01-15T18:32:42;16.73;;;15.70;;
60306;SDS011;46155;52.364;6.580;2023-01-15T18:35:09;18.40;;;17.23;;
60306;SDS011;46155;52.364;6.580;2023-01-15T18:37:36;18.30;;;17.20;;
60306;SDS011;46155;52.364;6.580;2023-01-15T18:40:01;19.00;;;17.80;;
60306;SDS011;46155;52.364;6.580;2023-01-15T18:42:26;18.43;;;17.13;;
60306;SDS011;46155;52.364;6.580;2023-01-15T18:45:10;18.60;;;17.07;;
60306;SDS011;46155;52.364;6.580;2023-01-15T18:47:54;17.93;;;16.93;;
60306;SDS011;46155;52.364;6.580;2023-01-15T18:50:20;20.27;;;18.83;;
60306;SDS011;46155;52.364;6.580;2023-01-15T18:52:45;18.80;;;17.47;;
60306;SDS011;46155;52.364;6.580;2023-01-15T18:55:17;21.63;;;19.83;;
60306;SDS011;46155;52.364;6.580;2023-01-15T18:57:45;19.47;;;18.30;;
60306;SDS011;46155;52.364;6.580;2023-01-15T19:00:11;23.77;;;18.53;;
60306;SDS011;46155;52.364;6.580;2023-01-15T19:02:39;22.73;;;20.53;;
60306;SDS011;46155;52.364;6.580;2023-01-15T19:05:05;20.57;;;19.30;;
60306;SDS011;46155;52.364;6.580;2023-01-15T19:07:31;20.77;;;19.47;;
60306;SDS011;46155;52.364;6.580;2023-01-15T19:09:57;20.50;;;18.97;;
60306;SDS011;46155;52.364;6.580;2023-01-15T19:12:22;21.33;;;19.43;;
60306;SDS011;46155;52.364;6.580;2023-01-15T19:14:47;22.30;;;20.27;;
60306;SDS011;46155;52.364;6.580;2023-01-15T19:17:31;20.37;;;18.93;;
60306;SDS011;46155;52.364;6.580;2023-01-15T19:20:16;20.40;;;19.03;;
60306;SDS011;46155;52.364;6.580;2023-01-15T19:22:43;19.33;;;18.13;;
60306;SDS011;46155;52.364;6.580;2023-01-15T19:25:24;21.27;;;19.07;;
60306;SDS011;46155;52.364;6.580;2023-01-15T19:27:51;20.13;;;18.03;;
60306;SDS011;46155;52.364;6.580;2023-01-15T19:30:17;18.80;;;17.70;;
60306;SDS011;46155;52.364;6.580;2023-01-15T19:32:43;22.00;;;20.20;;
60306;SDS011;46155;52.364;6.580;2023-01-15T19:35:09;22.67;;;20.00;;
60306;SDS011;46155;52.364;6.580;2023-01-15T19:37:34;19.40;;;17.83;;
60306;SDS011;46155;52.364;6.580;2023-01-15T19:40:07;18.10;;;16.53;;
60306;SDS011;46155;52.364;6.580;2023-01-15T19:42:40;17.03;;;15.77;;
60306;SDS011;46155;52.364;6.580;2023-01-15T19:45:24;19.13;;;17.67;;
60306;SDS011;46155;52.364;6.580;2023-01-15T19:48:10;18.03;;;16.30;;
60306;SDS011;46155;52.364;6.580;2023-01-15T19:50:55;18.33;;;16.83;;
60306;SDS011;46155;52.364;6.580;2023-01-15T19:53:21;17.63;;;16.30;;
60306;SDS011;46155;52.364;6.580;2023-01-15T19:55:46;16.50;;;15.33;;
60306;SDS011;46155;52.364;6.580;2023-01-15T19:58:12;17.33;;;16.33;;
60306;SDS011;46155;52.364;6.580;2023-01-15T20:00:38;17.07;;;16.10;;
60306;SDS011;46155;52.364;6.580;2023-01-15T20:03:05;18.13;;;17.03;;
60306;SDS011;46155;52.364;6.580;2023-01-15T20:05:34;16.97;;;15.60;;
60306;SDS011;46155;52.364;6.580;2023-01-15T20:08:00;17.87;;;16.77;;
60306;SDS011;46155;52.364;6.580;2023-01-15T20:10:26;17.10;;;15.43;;
60306;SDS011;46155;52.364;6.580;2023-01-15T20:12:53;17.03;;;15.77;;
60306;SDS011;46155;52.364;6.580;2023-01-15T20:15:37;14.60;;;13.23;;
60306;SDS011;46155;52.364;6.580;2023-01-15T20:18:04;14.60;;;13.27;;
60306;SDS011;46155;52.364;6.580;2023-01-15T20:20:30;13.43;;;12.60;;
60306;SDS011;46155;52.364;6.580;2023-01-15T20:22:55;12.93;;;12.23;;
60306;SDS011;46155;52.364;6.580;2023-01-15T20:25:22;15.10;;;13.80;;
60306;SDS011;46155;52.364;6.580;2023-01-15T20:27:49;14.73;;;13.90;;
60306;SDS011;46155;52.364;6.580;2023-01-15T20:30:15;13.90;;;12.70;;
60306;SDS011;46155;52.364;6.580;2023-01-15T20:32:44;14.93;;;13.57;;
60306;SDS011;46155;52.364;6.580;2023-01-15T20:35:12;14.57;;;13.37;;